sensor_id;sensor_type;location;lat;lon;timestamp;P1;durP1;ratioP1;P2;durP2;ratioP2
46721;SDS011;32455;43.430;23.136;2023-06-26T00:02:42;9.05;;;7.05;;
46721;SDS011;32455;43.430;23.136;2023-06-26T00:05:27;10.30;;;6.90;;
46721;SDS011;32455;43.430;23.136;2023-06-26T00:08:15;11.32;;;6.50;;
46721;SDS011;32455;43.430;23.136;2023-06-26T00:11:00;8.57;;;6.22;;
46721;SDS011;32455;43.430;23.136;2023-06-26T00:13:45;6.90;;;6.20;;
46721;SDS011;32455;43.430;23.136;2023-06-26T00:16:31;10.52;;;6.18;;
46721;SDS011;32455;43.430;23.136;2023-06-26T00:19:16;6.72;;;5.93;;
46721;SDS011;32455;43.430;23.136;2023-06-26T00:22:02;7.22;;;5.47;;
46721;SDS011;32455;43.430;23.136;2023-06-26T00:24:47;7.45;;;6.38;;
46721;SDS011;32455;43.430;23.136;2023-06-26T00:27:33;8.63;;;5.68;;
46721;SDS011;32455;43.430;23.136;2023-06-26T00:30:18;10.30;;;6.10;;
46721;SDS011;32455;43.430;23.136;2023-06-26T00:33:03;8.68;;;6.18;;
46721;SDS011;32455;43.430;23.136;2023-06-26T00:35:49;9.32;;;6.57;;
46721;SDS011;32455;43.430;23.136;2023-06-26T00:38:34;8.02;;;6.22;;
46721;SDS011;32455;43.430;23.136;2023-06-26T00:41:20;10.05;;;6.13;;
46721;SDS011;32455;43.430;23.136;2023-06-26T00:44:06;12.38;;;6.57;;
46721;SDS011;32455;43.430;23.136;2023-06-26T00:46:51;9.02;;;6.15;;
46721;SDS011;32455;43.430;23.136;2023-06-26T00:49:37;6.78;;;5.88;;
46721;SDS011;32455;43.430;23.136;2023-06-26T00:52:22;11.90;;;7.55;;
46721;SDS011;32455;43.430;23.136;2023-06-26T00:55:08;14.43;;;6.00;;
46721;SDS011;32455;43.430;23.136;2023-06-26T00:57:54;6.65;;;5.57;;
46721;SDS011;32455;43.430;23.136;2023-06-26T01:00:40;8.55;;;6.18;;
46721;SDS011;32455;43.430;23.136;2023-06-26T01:03:25;10.27;;;5.55;;
46721;SDS011;32455;43.430;23.136;2023-06-26T01:06:13;7.75;;;5.47;;
46721;SDS011;32455;43.430;23.136;2023-06-26T01:09:00;12.23;;;5.80;;
46721;SDS011;32455;43.430;23.136;2023-06-26T01:11:46;8.80;;;6.03;;
46721;SDS011;32455;43.430;23.136;2023-06-26T01:14:33;11.07;;;6.43;;
46721;SDS011;32455;43.430;23.136;2023-06-26T01:17:19;8.68;;;5.25;;
46721;SDS011;32455;43.430;23.136;2023-06-26T01:20:05;7.05;;;5.25;;
46721;SDS011;32455;43.430;23.136;2023-06-26T01:25:56;6.95;;;5.55;;
46721;SDS011;32455;43.430;23.136;2023-06-26T01:28:43;6.57;;;5.53;;
46721;SDS011;32455;43.430;23.136;2023-06-26T01:31:29;7.75;;;4.90;;
46721;SDS011;32455;43.430;23.136;2023-06-26T01:34:16;6.00;;;5.00;;
46721;SDS011;32455;43.430;23.136;2023-06-26T01:37:02;6.45;;;4.47;;
46721;SDS011;32455;43.430;23.136;2023-06-26T01:39:48;6.65;;;4.82;;
46721;SDS011;32455;43.430;23.136;2023-06-26T01:42:33;6.30;;;5.13;;
46721;SDS011;32455;43.430;23.136;2023-06-26T01:45:22;7.45;;;4.57;;
46721;SDS011;32455;43.430;23.136;2023-06-26T01:48:11;7.50;;;4.72;;
46721;SDS011;32455;43.430;23.136;2023-06-26T01:50:58;4.43;;;4.03;;
46721;SDS011;32455;43.430;23.136;2023-06-26T01:53:45;5.63;;;4.70;;
46721;SDS011;32455;43.430;23.136;2023-06-26T01:56:35;6.43;;;4.60;;
46721;SDS011;32455;43.430;23.136;2023-06-26T01:59:23;8.13;;;5.13;;
46721;SDS011;32455;43.430;23.136;2023-06-26T02:02:12;5.70;;;4.30;;
46721;SDS011;32455;43.430;23.136;2023-06-26T02:04:57;8.05;;;4.45;;
46721;SDS011;32455;43.430;23.136;2023-06-26T02:07:42;7.20;;;4.32;;
46721;SDS011;32455;43.430;23.136;2023-06-26T02:10:28;6.55;;;4.75;;
46721;SDS011;32455;43.430;23.136;2023-06-26T02:13:14;9.05;;;5.28;;
46721;SDS011;32455;43.430;23.136;2023-06-26T02:15:59;8.85;;;4.90;;
46721;SDS011;32455;43.430;23.136;2023-06-26T02:18:44;5.82;;;4.70;;
46721;SDS011;32455;43.430;23.136;2023-06-26T02:21:29;6.07;;;4.82;;
46721;SDS011;32455;43.430;23.136;2023-06-26T02:24:15;5.38;;;4.68;;
46721;SDS011;32455;43.430;23.136;2023-06-26T02:27:00;5.32;;;4.80;;
46721;SDS011;32455;43.430;23.136;2023-06-26T02:29:46;7.15;;;4.57;;
46721;SDS011;32455;43.430;23.136;2023-06-26T02:32:31;5.25;;;4.53;;
46721;SDS011;32455;43.430;23.136;2023-06-26T02:35:16;5.57;;;4.75;;
46721;SDS011;32455;43.430;23.136;2023-06-26T02:38:02;4.45;;;3.80;;
46721;SDS011;32455;43.430;23.136;2023-06-26T02:40:47;5.45;;;4.50;;
46721;SDS011;32455;43.430;23.136;2023-06-26T02:43:32;8.43;;;4.97;;
46721;SDS011;32455;43.430;23.136;2023-06-26T02:46:19;6.57;;;4.90;;
46721;SDS011;32455;43.430;23.136;2023-06-26T02:49:04;10.13;;;4.88;;
46721;SDS011;32455;43.430;23.136;2023-06-26T02:51:50;6.28;;;4.72;;
46721;SDS011;32455;43.430;23.136;2023-06-26T02:54:35;6.05;;;4.65;;
46721;SDS011;32455;43.430;23.136;2023-06-26T02:57:21;5.05;;;4.63;;
46721;SDS011;32455;43.430;23.136;2023-06-26T03:00:06;6.20;;;5.10;;
46721;SDS011;32455;43.430;23.136;2023-06-26T03:02:53;5.63;;;4.95;;
46721;SDS011;32455;43.430;23.136;2023-06-26T03:05:38;5.68;;;4.90;;
46721;SDS011;32455;43.430;23.136;2023-06-26T03:08:23;6.40;;;4.72;;
46721;SDS011;32455;43.430;23.136;2023-06-26T03:11:08;6.03;;;4.90;;
46721;SDS011;32455;43.430;23.136;2023-06-26T03:13:53;8.55;;;5.50;;
46721;SDS011;32455;43.430;23.136;2023-06-26T03:16:39;7.45;;;5.45;;
46721;SDS011;32455;43.430;23.136;2023-06-26T03:19:25;7.75;;;5.75;;
46721;SDS011;32455;43.430;23.136;2023-06-26T03:22:09;7.15;;;5.25;;
46721;SDS011;32455;43.430;23.136;2023-06-26T03:24:55;9.23;;;5.00;;
46721;SDS011;32455;43.430;23.136;2023-06-26T03:27:40;7.05;;;5.30;;
46721;SDS011;32455;43.430;23.136;2023-06-26T03:30:26;9.13;;;5.22;;
46721;SDS011;32455;43.430;23.136;2023-06-26T03:33:11;7.53;;;6.32;;
46721;SDS011;32455;43.430;23.136;2023-06-26T03:35:56;9.85;;;5.40;;
46721;SDS011;32455;43.430;23.136;2023-06-26T03:38:42;6.22;;;5.63;;
46721;SDS011;32455;43.430;23.136;2023-06-26T03:41:27;6.80;;;6.10;;
46721;SDS011;32455;43.430;23.136;2023-06-26T03:44:12;8.48;;;6.15;;
46721;SDS011;32455;43.430;23.136;2023-06-26T03:46:57;7.57;;;6.05;;
46721;SDS011;32455;43.430;23.136;2023-06-26T03:49:43;6.90;;;6.20;;
46721;SDS011;32455;43.430;23.136;2023-06-26T03:52:28;7.75;;;6.40;;
46721;SDS011;32455;43.430;23.136;2023-06-26T03:55:15;7.75;;;7.05;;
46721;SDS011;32455;43.430;23.136;2023-06-26T03:58:02;7.07;;;6.13;;
46721;SDS011;32455;43.430;23.136;2023-06-26T04:00:48;7.00;;;5.97;;
46721;SDS011;32455;43.430;23.136;2023-06-26T04:03:33;8.30;;;6.10;;
46721;SDS011;32455;43.430;23.136;2023-06-26T04:06:19;7.32;;;6.13;;
46721;SDS011;32455;43.430;23.136;2023-06-26T04:09:04;7.40;;;6.70;;
46721;SDS011;32455;43.430;23.136;2023-06-26T04:11:50;8.00;;;6.35;;
46721;SDS011;32455;43.430;23.136;2023-06-26T04:14:35;11.52;;;7.03;;
46721;SDS011;32455;43.430;23.136;2023-06-26T04:17:21;7.38;;;5.50;;
46721;SDS011;32455;43.430;23.136;2023-06-26T04:20:07;6.55;;;5.95;;
46721;SDS011;32455;43.430;23.136;2023-06-26T04:22:53;11.00;;;6.18;;
46721;SDS011;32455;43.430;23.136;2023-06-26T04:25:39;6.53;;;5.93;;
46721;SDS011;32455;43.430;23.136;2023-06-26T04:28:25;6.13;;;5.50;;
46721;SDS011;32455;43.430;23.136;2023-06-26T04:31:11;6.93;;;6.15;;
46721;SDS011;32455;43.430;23.136;2023-06-26T04:33:56;6.65;;;5.95;;
46721;SDS011;32455;43.430;23.136;2023-06-26T04:36:43;6.25;;;5.65;;
46721;SDS011;32455;43.430;23.136;2023-06-26T04:39:32;6.85;;;5.70;;
46721;SDS011;32455;43.430;23.136;2023-06-26T04:42:17;7.65;;;5.63;;
46721;SDS011;32455;43.430;23.136;2023-06-26T04:45:04;6.95;;;5.72;;
46721;SDS011;32455;43.430;23.136;2023-06-26T04:47:50;5.88;;;5.20;;
46721;SDS011;32455;43.430;23.136;2023-06-26T04:50:35;7.70;;;6.35;;
46721;SDS011;32455;43.430;23.136;2023-06-26T04:53:21;8.32;;;6.18;;
46721;SDS011;32455;43.430;23.136;2023-06-26T04:56:07;6.13;;;5.13;;
46721;SDS011;32455;43.430;23.136;2023-06-26T04:58:54;7.55;;;5.35;;
46721;SDS011;32455;43.430;23.136;2023-06-26T05:01:39;6.53;;;5.93;;
46721;SDS011;32455;43.430;23.136;2023-06-26T05:04:25;4.80;;;4.30;;
46721;SDS011;32455;43.430;23.136;2023-06-26T05:07:10;6.85;;;4.80;;
46721;SDS011;32455;43.430;23.136;2023-06-26T05:09:54;5.60;;;4.60;;
46721;SDS011;32455;43.430;23.136;2023-06-26T05:12:40;5.75;;;4.90;;
46721;SDS011;32455;43.430;23.136;2023-06-26T05:15:25;7.18;;;4.75;;
46721;SDS011;32455;43.430;23.136;2023-06-26T05:18:11;6.00;;;5.40;;
46721;SDS011;32455;43.430;23.136;2023-06-26T05:20:56;5.25;;;4.43;;
46721;SDS011;32455;43.430;23.136;2023-06-26T05:23:42;5.90;;;4.72;;
46721;SDS011;32455;43.430;23.136;2023-06-26T05:26:29;5.50;;;5.00;;
46721;SDS011;32455;43.430;23.136;2023-06-26T05:29:14;5.13;;;4.38;;
46721;SDS011;32455;43.430;23.136;2023-06-26T05:32:00;5.38;;;4.88;;
46721;SDS011;32455;43.430;23.136;2023-06-26T05:34:49;5.47;;;4.93;;
46721;SDS011;32455;43.430;23.136;2023-06-26T05:37:37;5.38;;;4.85;;
46721;SDS011;32455;43.430;23.136;2023-06-26T05:40:23;5.00;;;4.30;;
46721;SDS011;32455;43.430;23.136;2023-06-26T05:43:09;5.75;;;4.30;;
46721;SDS011;32455;43.430;23.136;2023-06-26T05:45:55;5.15;;;4.65;;
46721;SDS011;32455;43.430;23.136;2023-06-26T05:48:42;7.63;;;4.20;;
46721;SDS011;32455;43.430;23.136;2023-06-26T05:51:28;6.72;;;4.68;;
46721;SDS011;32455;43.430;23.136;2023-06-26T05:54:13;5.40;;;4.40;;
46721;SDS011;32455;43.430;23.136;2023-06-26T05:56:59;4.90;;;4.50;;
46721;SDS011;32455;43.430;23.136;2023-06-26T05:59:44;6.93;;;4.63;;
46721;SDS011;32455;43.430;23.136;2023-06-26T06:02:30;7.47;;;4.38;;
46721;SDS011;32455;43.430;23.136;2023-06-26T06:05:15;5.10;;;4.60;;
46721;SDS011;32455;43.430;23.136;2023-06-26T06:08:01;5.90;;;4.97;;
46721;SDS011;32455;43.430;23.136;2023-06-26T06:10:46;6.05;;;4.20;;
46721;SDS011;32455;43.430;23.136;2023-06-26T06:13:31;4.78;;;4.32;;
46721;SDS011;32455;43.430;23.136;2023-06-26T06:16:16;5.03;;;4.53;;
46721;SDS011;32455;43.430;23.136;2023-06-26T06:19:01;6.28;;;5.68;;
46721;SDS011;32455;43.430;23.136;2023-06-26T06:21:47;6.47;;;5.18;;
46721;SDS011;32455;43.430;23.136;2023-06-26T06:24:33;5.47;;;4.97;;
46721;SDS011;32455;43.430;23.136;2023-06-26T06:27:18;5.47;;;4.88;;
46721;SDS011;32455;43.430;23.136;2023-06-26T06:30:04;4.90;;;4.40;;
46721;SDS011;32455;43.430;23.136;2023-06-26T06:32:49;5.32;;;4.53;;
46721;SDS011;32455;43.430;23.136;2023-06-26T06:35:37;8.05;;;4.97;;
46721;SDS011;32455;43.430;23.136;2023-06-26T06:38:22;5.75;;;4.20;;
46721;SDS011;32455;43.430;23.136;2023-06-26T06:41:08;4.47;;;4.03;;
46721;SDS011;32455;43.430;23.136;2023-06-26T06:43:53;4.50;;;4.10;;
46721;SDS011;32455;43.430;23.136;2023-06-26T06:46:39;4.65;;;4.25;;
46721;SDS011;32455;43.430;23.136;2023-06-26T06:49:24;14.65;;;5.03;;
46721;SDS011;32455;43.430;23.136;2023-06-26T06:52:09;4.78;;;4.30;;
46721;SDS011;32455;43.430;23.136;2023-06-26T06:54:55;4.28;;;3.88;;
46721;SDS011;32455;43.430;23.136;2023-06-26T06:57:42;4.97;;;4.18;;
46721;SDS011;32455;43.430;23.136;2023-06-26T07:00:27;5.00;;;4.50;;
46721;SDS011;32455;43.430;23.136;2023-06-26T07:03:12;5.25;;;3.88;;
46721;SDS011;32455;43.430;23.136;2023-06-26T07:05:57;5.28;;;4.47;;
46721;SDS011;32455;43.430;23.136;2023-06-26T07:08:43;5.00;;;3.60;;
46721;SDS011;32455;43.430;23.136;2023-06-26T07:11:28;5.55;;;3.92;;
46721;SDS011;32455;43.430;23.136;2023-06-26T07:14:13;4.55;;;3.83;;
46721;SDS011;32455;43.430;23.136;2023-06-26T07:16:59;4.63;;;4.13;;
46721;SDS011;32455;43.430;23.136;2023-06-26T07:19:44;4.03;;;3.63;;
46721;SDS011;32455;43.430;23.136;2023-06-26T07:22:29;4.88;;;3.47;;
46721;SDS011;32455;43.430;23.136;2023-06-26T07:25:15;3.92;;;3.53;;
46721;SDS011;32455;43.430;23.136;2023-06-26T07:28:00;4.07;;;3.65;;
46721;SDS011;32455;43.430;23.136;2023-06-26T07:30:45;4.28;;;3.88;;
46721;SDS011;32455;43.430;23.136;2023-06-26T07:33:31;3.67;;;3.10;;
46721;SDS011;32455;43.430;23.136;2023-06-26T07:36:16;4.43;;;2.88;;
46721;SDS011;32455;43.430;23.136;2023-06-26T07:39:02;3.88;;;3.45;;
46721;SDS011;32455;43.430;23.136;2023-06-26T07:41:47;3.30;;;2.85;;
46721;SDS011;32455;43.430;23.136;2023-06-26T07:44:32;3.70;;;3.10;;
46721;SDS011;32455;43.430;23.136;2023-06-26T07:47:18;3.53;;;2.90;;
46721;SDS011;32455;43.430;23.136;2023-06-26T07:50:03;4.07;;;3.45;;
46721;SDS011;32455;43.430;23.136;2023-06-26T07:52:49;4.30;;;3.00;;
46721;SDS011;32455;43.430;23.136;2023-06-26T07:55:35;3.50;;;3.20;;
46721;SDS011;32455;43.430;23.136;2023-06-26T07:58:21;4.72;;;3.65;;
46721;SDS011;32455;43.430;23.136;2023-06-26T08:01:06;4.97;;;3.00;;
46721;SDS011;32455;43.430;23.136;2023-06-26T08:03:51;4.63;;;3.67;;
46721;SDS011;32455;43.430;23.136;2023-06-26T08:06:37;3.60;;;3.30;;
46721;SDS011;32455;43.430;23.136;2023-06-26T08:09:26;3.88;;;3.58;;
46721;SDS011;32455;43.430;23.136;2023-06-26T08:12:13;3.90;;;3.50;;
46721;SDS011;32455;43.430;23.136;2023-06-26T08:14:58;5.80;;;3.63;;
46721;SDS011;32455;43.430;23.136;2023-06-26T08:17:44;3.88;;;3.50;;
46721;SDS011;32455;43.430;23.136;2023-06-26T08:20:30;3.45;;;3.15;;
46721;SDS011;32455;43.430;23.136;2023-06-26T08:23:15;6.47;;;3.58;;
46721;SDS011;32455;43.430;23.136;2023-06-26T08:26:00;4.55;;;4.03;;
46721;SDS011;32455;43.430;23.136;2023-06-26T08:28:45;4.25;;;3.70;;
46721;SDS011;32455;43.430;23.136;2023-06-26T08:31:30;4.72;;;3.38;;
46721;SDS011;32455;43.430;23.136;2023-06-26T08:34:19;5.05;;;4.05;;
46721;SDS011;32455;43.430;23.136;2023-06-26T08:37:04;6.22;;;3.88;;
46721;SDS011;32455;43.430;23.136;2023-06-26T08:39:48;5.22;;;3.45;;
46721;SDS011;32455;43.430;23.136;2023-06-26T08:42:34;4.43;;;3.33;;
46721;SDS011;32455;43.430;23.136;2023-06-26T08:45:19;6.75;;;3.42;;
46721;SDS011;32455;43.430;23.136;2023-06-26T08:48:07;4.15;;;3.67;;
46721;SDS011;32455;43.430;23.136;2023-06-26T08:50:53;5.95;;;3.78;;
46721;SDS011;32455;43.430;23.136;2023-06-26T08:54:00;5.30;;;4.28;;
46721;SDS011;32455;43.430;23.136;2023-06-26T08:56:46;4.72;;;3.88;;
46721;SDS011;32455;43.430;23.136;2023-06-26T08:59:33;7.70;;;4.22;;
46721;SDS011;32455;43.430;23.136;2023-06-26T09:02:19;4.55;;;3.92;;
46721;SDS011;32455;43.430;23.136;2023-06-26T09:05:08;5.78;;;3.80;;
46721;SDS011;32455;43.430;23.136;2023-06-26T09:07:54;9.02;;;3.78;;
46721;SDS011;32455;43.430;23.136;2023-06-26T09:10:41;6.88;;;4.38;;
46721;SDS011;32455;43.430;23.136;2023-06-26T09:13:30;5.57;;;3.60;;
46721;SDS011;32455;43.430;23.136;2023-06-26T09:16:15;4.15;;;3.65;;
46721;SDS011;32455;43.430;23.136;2023-06-26T09:19:02;4.30;;;3.67;;
46721;SDS011;32455;43.430;23.136;2023-06-26T09:21:48;4.85;;;3.60;;
46721;SDS011;32455;43.430;23.136;2023-06-26T09:24:35;4.03;;;3.13;;
46721;SDS011;32455;43.430;23.136;2023-06-26T09:27:21;4.38;;;3.70;;
46721;SDS011;32455;43.430;23.136;2023-06-26T09:30:07;3.92;;;3.53;;
46721;SDS011;32455;43.430;23.136;2023-06-26T09:32:53;3.92;;;3.53;;
46721;SDS011;32455;43.430;23.136;2023-06-26T09:35:38;6.32;;;3.72;;
46721;SDS011;32455;43.430;23.136;2023-06-26T09:38:24;5.05;;;3.92;;
46721;SDS011;32455;43.430;23.136;2023-06-26T09:41:09;3.45;;;3.13;;
46721;SDS011;32455;43.430;23.136;2023-06-26T09:43:54;3.38;;;3.05;;
46721;SDS011;32455;43.430;23.136;2023-06-26T09:46:45;5.70;;;3.40;;
46721;SDS011;32455;43.430;23.136;2023-06-26T09:49:32;4.75;;;3.30;;
46721;SDS011;32455;43.430;23.136;2023-06-26T09:52:17;5.53;;;3.10;;
46721;SDS011;32455;43.430;23.136;2023-06-26T09:55:10;3.40;;;3.10;;
46721;SDS011;32455;43.430;23.136;2023-06-26T09:57:57;3.33;;;2.72;;
46721;SDS011;32455;43.430;23.136;2023-06-26T10:00:45;3.70;;;3.10;;
46721;SDS011;32455;43.430;23.136;2023-06-26T10:03:30;4.95;;;3.20;;
46721;SDS011;32455;43.430;23.136;2023-06-26T10:06:17;3.97;;;2.97;;
46721;SDS011;32455;43.430;23.136;2023-06-26T10:09:07;5.63;;;3.33;;
46721;SDS011;32455;43.430;23.136;2023-06-26T10:12:03;4.72;;;3.15;;
46721;SDS011;32455;43.430;23.136;2023-06-26T10:14:56;3.78;;;3.00;;
46721;SDS011;32455;43.430;23.136;2023-06-26T10:17:43;4.07;;;3.15;;
46721;SDS011;32455;43.430;23.136;2023-06-26T10:20:31;3.38;;;3.03;;
46721;SDS011;32455;43.430;23.136;2023-06-26T10:23:17;3.75;;;3.28;;
46721;SDS011;32455;43.430;23.136;2023-06-26T10:26:04;3.65;;;2.90;;
46721;SDS011;32455;43.430;23.136;2023-06-26T10:28:52;3.45;;;3.15;;
46721;SDS011;32455;43.430;23.136;2023-06-26T10:31:41;3.97;;;2.80;;
46721;SDS011;32455;43.430;23.136;2023-06-26T10:34:30;3.33;;;2.83;;
46721;SDS011;32455;43.430;23.136;2023-06-26T10:37:16;3.17;;;2.80;;
46721;SDS011;32455;43.430;23.136;2023-06-26T10:40:01;2.95;;;2.75;;
46721;SDS011;32455;43.430;23.136;2023-06-26T10:42:46;3.83;;;2.90;;
46721;SDS011;32455;43.430;23.136;2023-06-26T10:45:32;6.20;;;2.58;;
46721;SDS011;32455;43.430;23.136;2023-06-26T10:48:19;4.85;;;2.92;;
46721;SDS011;32455;43.430;23.136;2023-06-26T10:51:23;4.32;;;3.08;;
46721;SDS011;32455;43.430;23.136;2023-06-26T10:54:09;4.35;;;3.20;;
46721;SDS011;32455;43.430;23.136;2023-06-26T10:57:00;5.78;;;3.17;;
46721;SDS011;32455;43.430;23.136;2023-06-26T10:59:46;9.02;;;3.50;;
46721;SDS011;32455;43.430;23.136;2023-06-26T11:02:46;4.13;;;2.80;;
46721;SDS011;32455;43.430;23.136;2023-06-26T11:05:35;5.90;;;2.70;;
46721;SDS011;32455;43.430;23.136;2023-06-26T11:08:20;4.57;;;2.75;;
46721;SDS011;32455;43.430;23.136;2023-06-26T11:11:06;4.03;;;3.00;;
46721;SDS011;32455;43.430;23.136;2023-06-26T11:13:51;4.22;;;3.10;;
46721;SDS011;32455;43.430;23.136;2023-06-26T11:16:37;3.38;;;2.35;;
46721;SDS011;32455;43.430;23.136;2023-06-26T11:19:27;4.32;;;2.40;;
46721;SDS011;32455;43.430;23.136;2023-06-26T11:22:12;3.28;;;2.97;;
46721;SDS011;32455;43.430;23.136;2023-06-26T11:25:00;2.95;;;2.50;;
46721;SDS011;32455;43.430;23.136;2023-06-26T11:27:46;3.05;;;2.78;;
46721;SDS011;32455;43.430;23.136;2023-06-26T11:30:31;4.38;;;3.10;;
46721;SDS011;32455;43.430;23.136;2023-06-26T11:33:17;3.28;;;2.97;;
46721;SDS011;32455;43.430;23.136;2023-06-26T11:36:10;4.05;;;3.00;;
46721;SDS011;32455;43.430;23.136;2023-06-26T11:38:56;3.13;;;2.83;;
46721;SDS011;32455;43.430;23.136;2023-06-26T11:41:44;3.00;;;2.60;;
46721;SDS011;32455;43.430;23.136;2023-06-26T11:44:30;4.28;;;2.55;;
46721;SDS011;32455;43.430;23.136;2023-06-26T11:47:16;4.60;;;2.75;;
46721;SDS011;32455;43.430;23.136;2023-06-26T11:50:04;2.88;;;2.53;;
46721;SDS011;32455;43.430;23.136;2023-06-26T11:52:56;5.13;;;2.97;;
46721;SDS011;32455;43.430;23.136;2023-06-26T11:55:42;4.55;;;3.08;;
46721;SDS011;32455;43.430;23.136;2023-06-26T11:58:30;3.67;;;2.97;;
46721;SDS011;32455;43.430;23.136;2023-06-26T12:01:18;3.45;;;3.10;;
46721;SDS011;32455;43.430;23.136;2023-06-26T12:04:04;6.18;;;3.20;;
46721;SDS011;32455;43.430;23.136;2023-06-26T12:06:52;4.15;;;2.80;;
46721;SDS011;32455;43.430;23.136;2023-06-26T12:09:45;4.03;;;2.78;;
46721;SDS011;32455;43.430;23.136;2023-06-26T12:12:32;4.95;;;3.05;;
46721;SDS011;32455;43.430;23.136;2023-06-26T12:15:19;4.00;;;2.50;;
46721;SDS011;32455;43.430;23.136;2023-06-26T12:18:10;3.25;;;2.95;;
46721;SDS011;32455;43.430;23.136;2023-06-26T12:20:56;5.28;;;2.90;;
46721;SDS011;32455;43.430;23.136;2023-06-26T12:23:42;2.80;;;2.58;;
46721;SDS011;32455;43.430;23.136;2023-06-26T12:26:27;2.97;;;2.67;;
46721;SDS011;32455;43.430;23.136;2023-06-26T12:29:16;4.10;;;3.05;;
46721;SDS011;32455;43.430;23.136;2023-06-26T12:32:03;4.57;;;3.00;;
46721;SDS011;32455;43.430;23.136;2023-06-26T12:34:53;4.40;;;3.35;;
46721;SDS011;32455;43.430;23.136;2023-06-26T12:37:41;4.53;;;2.75;;
46721;SDS011;32455;43.430;23.136;2023-06-26T12:40:28;4.72;;;3.50;;
46721;SDS011;32455;43.430;23.136;2023-06-26T12:43:22;4.25;;;3.08;;
46721;SDS011;32455;43.430;23.136;2023-06-26T12:46:08;4.00;;;3.13;;
46721;SDS011;32455;43.430;23.136;2023-06-26T12:48:54;6.05;;;2.60;;
46721;SDS011;32455;43.430;23.136;2023-06-26T12:51:39;3.75;;;2.97;;
46721;SDS011;32455;43.430;23.136;2023-06-26T12:54:25;5.45;;;2.83;;
46721;SDS011;32455;43.430;23.136;2023-06-26T12:57:11;4.53;;;2.72;;
46721;SDS011;32455;43.430;23.136;2023-06-26T12:59:58;3.45;;;3.15;;
46721;SDS011;32455;43.430;23.136;2023-06-26T13:02:45;4.13;;;3.00;;
46721;SDS011;32455;43.430;23.136;2023-06-26T13:05:31;4.43;;;3.10;;
46721;SDS011;32455;43.430;23.136;2023-06-26T13:08:16;3.20;;;2.90;;
46721;SDS011;32455;43.430;23.136;2023-06-26T13:11:04;3.90;;;2.88;;
46721;SDS011;32455;43.430;23.136;2023-06-26T13:13:50;3.33;;;2.65;;
46721;SDS011;32455;43.430;23.136;2023-06-26T13:16:36;4.25;;;3.03;;
46721;SDS011;32455;43.430;23.136;2023-06-26T13:19:21;3.28;;;2.97;;
46721;SDS011;32455;43.430;23.136;2023-06-26T13:22:07;3.75;;;2.60;;
46721;SDS011;32455;43.430;23.136;2023-06-26T13:24:52;3.55;;;2.72;;
46721;SDS011;32455;43.430;23.136;2023-06-26T13:27:37;4.63;;;3.22;;
46721;SDS011;32455;43.430;23.136;2023-06-26T13:30:23;4.32;;;2.88;;
46721;SDS011;32455;43.430;23.136;2023-06-26T13:33:09;3.40;;;2.92;;
46721;SDS011;32455;43.430;23.136;2023-06-26T13:35:55;2.95;;;2.60;;
46721;SDS011;32455;43.430;23.136;2023-06-26T13:38:40;4.28;;;2.90;;
46721;SDS011;32455;43.430;23.136;2023-06-26T13:41:25;3.42;;;2.85;;
46721;SDS011;32455;43.430;23.136;2023-06-26T13:44:11;3.65;;;3.30;;
46721;SDS011;32455;43.430;23.136;2023-06-26T13:46:56;4.65;;;3.10;;
46721;SDS011;32455;43.430;23.136;2023-06-26T13:49:41;4.85;;;2.78;;
46721;SDS011;32455;43.430;23.136;2023-06-26T13:52:26;3.58;;;2.85;;
46721;SDS011;32455;43.430;23.136;2023-06-26T13:55:12;3.15;;;2.85;;
46721;SDS011;32455;43.430;23.136;2023-06-26T13:57:57;3.25;;;2.85;;
46721;SDS011;32455;43.430;23.136;2023-06-26T14:00:43;4.68;;;2.63;;
46721;SDS011;32455;43.430;23.136;2023-06-26T14:03:28;4.53;;;2.92;;
46721;SDS011;32455;43.430;23.136;2023-06-26T14:06:12;4.75;;;2.55;;
46721;SDS011;32455;43.430;23.136;2023-06-26T14:08:58;7.22;;;3.00;;
46721;SDS011;32455;43.430;23.136;2023-06-26T14:11:44;3.63;;;2.92;;
46721;SDS011;32455;43.430;23.136;2023-06-26T14:14:30;3.08;;;2.60;;
46721;SDS011;32455;43.430;23.136;2023-06-26T14:17:15;2.65;;;2.45;;
46721;SDS011;32455;43.430;23.136;2023-06-26T14:20:01;4.00;;;2.70;;
46721;SDS011;32455;43.430;23.136;2023-06-26T14:22:46;3.13;;;2.33;;
46721;SDS011;32455;43.430;23.136;2023-06-26T14:25:32;3.33;;;2.40;;
46721;SDS011;32455;43.430;23.136;2023-06-26T14:28:17;3.03;;;2.72;;
46721;SDS011;32455;43.430;23.136;2023-06-26T14:31:02;3.17;;;2.85;;
46721;SDS011;32455;43.430;23.136;2023-06-26T14:33:47;3.47;;;2.55;;
46721;SDS011;32455;43.430;23.136;2023-06-26T14:36:33;2.65;;;2.40;;
46721;SDS011;32455;43.430;23.136;2023-06-26T14:39:18;4.28;;;2.70;;
46721;SDS011;32455;43.430;23.136;2023-06-26T14:42:04;5.05;;;2.60;;
46721;SDS011;32455;43.430;23.136;2023-06-26T14:44:50;3.38;;;2.50;;
46721;SDS011;32455;43.430;23.136;2023-06-26T14:47:36;2.97;;;2.33;;
46721;SDS011;32455;43.430;23.136;2023-06-26T14:50:21;3.90;;;2.85;;
46721;SDS011;32455;43.430;23.136;2023-06-26T14:53:06;3.28;;;2.88;;
46721;SDS011;32455;43.430;23.136;2023-06-26T14:55:51;3.92;;;2.60;;
46721;SDS011;32455;43.430;23.136;2023-06-26T14:58:36;2.85;;;2.30;;
46721;SDS011;32455;43.430;23.136;2023-06-26T15:01:21;3.00;;;2.47;;
46721;SDS011;32455;43.430;23.136;2023-06-26T15:04:07;2.88;;;2.35;;
46721;SDS011;32455;43.430;23.136;2023-06-26T15:06:53;4.30;;;2.80;;
46721;SDS011;32455;43.430;23.136;2023-06-26T15:09:38;3.10;;;2.40;;
46721;SDS011;32455;43.430;23.136;2023-06-26T15:12:25;3.20;;;2.58;;
46721;SDS011;32455;43.430;23.136;2023-06-26T15:15:12;4.35;;;2.60;;
46721;SDS011;32455;43.430;23.136;2023-06-26T15:17:58;3.60;;;2.65;;
46721;SDS011;32455;43.430;23.136;2023-06-26T15:20:44;4.13;;;2.40;;
46721;SDS011;32455;43.430;23.136;2023-06-26T15:23:30;5.10;;;2.83;;
46721;SDS011;32455;43.430;23.136;2023-06-26T15:26:15;4.82;;;2.40;;
46721;SDS011;32455;43.430;23.136;2023-06-26T15:29:01;2.60;;;2.40;;
46721;SDS011;32455;43.430;23.136;2023-06-26T15:31:46;2.60;;;2.40;;
46721;SDS011;32455;43.430;23.136;2023-06-26T15:34:31;5.13;;;2.88;;
46721;SDS011;32455;43.430;23.136;2023-06-26T15:37:17;3.35;;;2.67;;
46721;SDS011;32455;43.430;23.136;2023-06-26T15:40:02;2.55;;;2.33;;
46721;SDS011;32455;43.430;23.136;2023-06-26T15:42:51;7.97;;;2.60;;
46721;SDS011;32455;43.430;23.136;2023-06-26T15:45:36;3.63;;;2.42;;
46721;SDS011;32455;43.430;23.136;2023-06-26T15:48:21;4.60;;;2.70;;
46721;SDS011;32455;43.430;23.136;2023-06-26T15:51:06;3.55;;;2.70;;
46721;SDS011;32455;43.430;23.136;2023-06-26T15:53:51;4.38;;;2.70;;
46721;SDS011;32455;43.430;23.136;2023-06-26T15:56:37;3.17;;;2.40;;
46721;SDS011;32455;43.430;23.136;2023-06-26T15:59:22;5.28;;;2.58;;
46721;SDS011;32455;43.430;23.136;2023-06-26T16:02:08;4.65;;;2.47;;
46721;SDS011;32455;43.430;23.136;2023-06-26T16:04:53;3.08;;;2.53;;
46721;SDS011;32455;43.430;23.136;2023-06-26T16:07:39;2.95;;;2.58;;
46721;SDS011;32455;43.430;23.136;2023-06-26T16:10:24;2.80;;;2.50;;
46721;SDS011;32455;43.430;23.136;2023-06-26T16:13:10;6.10;;;2.60;;
46721;SDS011;32455;43.430;23.136;2023-06-26T16:15:55;2.45;;;2.17;;
46721;SDS011;32455;43.430;23.136;2023-06-26T16:18:40;3.25;;;2.90;;
46721;SDS011;32455;43.430;23.136;2023-06-26T16:21:26;3.47;;;2.70;;
46721;SDS011;32455;43.430;23.136;2023-06-26T16:24:11;9.57;;;2.78;;
46721;SDS011;32455;43.430;23.136;2023-06-26T16:26:57;4.80;;;2.65;;
46721;SDS011;32455;43.430;23.136;2023-06-26T16:29:42;5.18;;;2.78;;